sensor_id;sensor_type;location;lat;lon;timestamp;temperature;humidity
41256;DHT22;26989;45.524;10.938;2022-12-18T00:01:40;5.50;99.90
41256;DHT22;26989;45.524;10.938;2022-12-18T00:04:16;5.60;99.90
41256;DHT22;26989;45.524;10.938;2022-12-18T00:06:45;5.50;99.90
41256;DHT22;26989;45.524;10.938;2022-12-18T00:09:15;5.50;99.90
41256;DHT22;26989;45.524;10.938;2022-12-18T00:11:45;5.60;99.90
41256;DHT22;26989;45.524;10.938;2022-12-18T00:14:13;5.50;99.90
41256;DHT22;26989;45.524;10.938;2022-12-18T00:16:45;5.50;99.90
41256;DHT22;26989;45.524;10.938;2022-12-18T00:19:13;5.40;99.90
41256;DHT22;26989;45.524;10.938;2022-12-18T00:21:41;5.40;99.90
41256;DHT22;26989;45.524;10.938;2022-12-18T00:24:09;5.40;99.90
41256;DHT22;26989;45.524;10.938;2022-12-18T00:26:38;5.40;99.90
41256;DHT22;26989;45.524;10.938;2022-12-18T00:29:11;5.40;99.90
41256;DHT22;26989;45.524;10.938;2022-12-18T00:31:38;5.40;99.90
41256;DHT22;26989;45.524;10.938;2022-12-18T00:34:05;5.40;99.90
41256;DHT22;26989;45.524;10.938;2022-12-18T00:36:33;5.40;99.90
41256;DHT22;26989;45.524;10.938;2022-12-18T00:39:03;5.50;99.90
41256;DHT22;26989;45.524;10.938;2022-12-18T00:41:30;5.50;99.90
41256;DHT22;26989;45.524;10.938;2022-12-18T00:44:17;5.50;99.90
41256;DHT22;26989;45.524;10.938;2022-12-18T00:46:46;5.50;99.90
41256;DHT22;26989;45.524;10.938;2022-12-18T00:49:18;5.50;99.90
41256;DHT22;26989;45.524;10.938;2022-12-18T00:51:46;5.50;99.90
41256;DHT22;26989;45.524;10.938;2022-12-18T00:54:16;5.50;99.90
41256;DHT22;26989;45.524;10.938;2022-12-18T00:56:43;5.60;99.90
41256;DHT22;26989;45.524;10.938;2022-12-18T00:59:16;5.60;99.90
41256;DHT22;26989;45.524;10.938;2022-12-18T01:01:45;5.60;99.90
41256;DHT22;26989;45.524;10.938;2022-12-18T01:04:14;5.60;99.90
41256;DHT22;26989;45.524;10.938;2022-12-18T01:06:40;5.60;99.90
41256;DHT22;26989;45.524;10.938;2022-12-18T01:09:07;5.60;99.90
41256;DHT22;26989;45.524;10.938;2022-12-18T01:11:34;5.60;99.90
41256;DHT22;26989;45.524;10.938;2022-12-18T01:14:01;5.60;99.90
41256;DHT22;26989;45.524;10.938;2022-12-18T01:16:28;5.60;99.90
41256;DHT22;26989;45.524;10.938;2022-12-18T01:18:55;5.70;99.90
41256;DHT22;26989;45.524;10.938;2022-12-18T01:21:23;5.70;99.90
41256;DHT22;26989;45.524;10.938;2022-12-18T01:23:54;5.70;99.90
41256;DHT22;26989;45.524;10.938;2022-12-18T01:26:22;5.70;99.90
41256;DHT22;26989;45.524;10.938;2022-12-18T01:28:49;5.70;99.90
41256;DHT22;26989;45.524;10.938;2022-12-18T01:31:26;5.70;99.90
41256;DHT22;26989;45.524;10.938;2022-12-18T01:33:54;5.70;99.90
41256;DHT22;26989;45.524;10.938;2022-12-18T01:36:33;5.70;99.90
41256;DHT22;26989;45.524;10.938;2022-12-18T01:39:02;5.70;99.90
41256;DHT22;26989;45.524;10.938;2022-12-18T01:41:31;5.70;99.90
41256;DHT22;26989;45.524;10.938;2022-12-18T01:44:54;5.60;99.90
41256;DHT22;26989;45.524;10.938;2022-12-18T01:52:51;5.60;99.90
41256;DHT22;26989;45.524;10.938;2022-12-18T01:55:23;5.60;99.90
41256;DHT22;26989;45.524;10.938;2022-12-18T01:57:54;5.50;99.90
41256;DHT22;26989;45.524;10.938;2022-12-18T02:00:22;5.60;99.90
41256;DHT22;26989;45.524;10.938;2022-12-18T02:02:50;5.60;99.90
41256;DHT22;26989;45.524;10.938;2022-12-18T02:05:46;5.60;99.90
41256;DHT22;26989;45.524;10.938;2022-12-18T02:11:16;5.60;99.90
41256;DHT22;26989;45.524;10.938;2022-12-18T02:13:50;5.60;99.90
41256;DHT22;26989;45.524;10.938;2022-12-18T02:19:21;5.50;99.90
41256;DHT22;26989;45.524;10.938;2022-12-18T02:27:22;5.60;99.90
41256;DHT22;26989;45.524;10.938;2022-12-18T02:29:54;5.60;99.90
41256;DHT22;26989;45.524;10.938;2022-12-18T02:32:27;5.60;99.90
41256;DHT22;26989;45.524;10.938;2022-12-18T02:34:56;5.60;99.90
41256;DHT22;26989;45.524;10.938;2022-12-18T02:37:26;5.70;99.90
41256;DHT22;26989;45.524;10.938;2022-12-18T02:39:56;5.70;99.90
41256;DHT22;26989;45.524;10.938;2022-12-18T02:42:26;5.70;99.90
41256;DHT22;26989;45.524;10.938;2022-12-18T02:44:54;5.70;99.90
41256;DHT22;26989;45.524;10.938;2022-12-18T02:47:24;5.70;99.90
41256;DHT22;26989;45.524;10.938;2022-12-18T02:58:37;5.70;99.90
41256;DHT22;26989;45.524;10.938;2022-12-18T03:01:13;5.70;99.90
41256;DHT22;26989;45.524;10.938;2022-12-18T03:03:54;5.70;99.90
41256;DHT22;26989;45.524;10.938;2022-12-18T03:06:43;5.70;99.90
41256;DHT22;26989;45.524;10.938;2022-12-18T03:09:21;5.70;99.90
41256;DHT22;26989;45.524;10.938;2022-12-18T03:11:55;5.70;99.90
41256;DHT22;26989;45.524;10.938;2022-12-18T03:14:41;5.70;99.90
41256;DHT22;26989;45.524;10.938;2022-12-18T03:17:15;5.70;99.90
41256;DHT22;26989;45.524;10.938;2022-12-18T03:19:46;5.70;99.90
41256;DHT22;26989;45.524;10.938;2022-12-18T03:22:16;5.60;99.90
41256;DHT22;26989;45.524;10.938;2022-12-18T03:24:45;5.70;99.90
41256;DHT22;26989;45.524;10.938;2022-12-18T03:27:15;5.60;99.90
41256;DHT22;26989;45.524;10.938;2022-12-18T03:29:47;5.60;99.90
41256;DHT22;26989;45.524;10.938;2022-12-18T03:32:28;5.70;99.90
41256;DHT22;26989;45.524;10.938;2022-12-18T03:34:58;5.70;99.90
41256;DHT22;26989;45.524;10.938;2022-12-18T03:37:26;5.80;99.90
41256;DHT22;26989;45.524;10.938;2022-12-18T03:39:53;5.70;99.90
41256;DHT22;26989;45.524;10.938;2022-12-18T03:51:05;5.80;99.90
41256;DHT22;26989;45.524;10.938;2022-12-18T03:55:50;5.80;99.90
41256;DHT22;26989;45.524;10.938;2022-12-18T03:58:22;5.80;99.90
41256;DHT22;26989;45.524;10.938;2022-12-18T04:00:51;5.70;99.90
41256;DHT22;26989;45.524;10.938;2022-12-18T04:03:19;5.70;99.90
41256;DHT22;26989;45.524;10.938;2022-12-18T04:05:54;5.60;99.90
41256;DHT22;26989;45.524;10.938;2022-12-18T04:08:22;5.70;99.90
41256;DHT22;26989;45.524;10.938;2022-12-18T04:10:50;5.70;99.90
41256;DHT22;26989;45.524;10.938;2022-12-18T04:13:25;5.70;99.90
41256;DHT22;26989;45.524;10.938;2022-12-18T04:15:54;5.70;99.90
41256;DHT22;26989;45.524;10.938;2022-12-18T04:18:21;5.70;99.90
41256;DHT22;26989;45.524;10.938;2022-12-18T04:20:48;5.70;99.90
41256;DHT22;26989;45.524;10.938;2022-12-18T04:23:14;5.70;99.90
41256;DHT22;26989;45.524;10.938;2022-12-18T04:25:41;5.70;99.90
41256;DHT22;26989;45.524;10.938;2022-12-18T04:28:08;5.80;99.90
41256;DHT22;26989;45.524;10.938;2022-12-18T04:30:35;5.70;99.90
41256;DHT22;26989;45.524;10.938;2022-12-18T04:33:02;5.70;99.90
41256;DHT22;26989;45.524;10.938;2022-12-18T04:35:29;5.70;99.90
41256;DHT22;26989;45.524;10.938;2022-12-18T04:37:56;5.70;99.90
41256;DHT22;26989;45.524;10.938;2022-12-18T04:40:23;5.60;99.90
41256;DHT22;26989;45.524;10.938;2022-12-18T04:42:50;5.70;99.90
41256;DHT22;26989;45.524;10.938;2022-12-18T04:45:17;5.70;99.90
41256;DHT22;26989;45.524;10.938;2022-12-18T04:47:44;5.70;99.90
41256;DHT22;26989;45.524;10.938;2022-12-18T04:50:11;5.70;99.90
41256;DHT22;26989;45.524;10.938;2022-12-18T04:52:38;5.70;99.90
41256;DHT22;26989;45.524;10.938;2022-12-18T04:55:05;5.70;99.90
41256;DHT22;26989;45.524;10.938;2022-12-18T04:57:32;5.70;99.90
41256;DHT22;26989;45.524;10.938;2022-12-18T04:59:59;5.80;99.90
41256;DHT22;26989;45.524;10.938;2022-12-18T05:02:26;5.70;99.90
41256;DHT22;26989;45.524;10.938;2022-12-18T05:04:53;5.60;99.90
41256;DHT22;26989;45.524;10.938;2022-12-18T05:07:20;5.60;99.90
41256;DHT22;26989;45.524;10.938;2022-12-18T05:09:47;5.60;99.90
41256;DHT22;26989;45.524;10.938;2022-12-18T05:12:14;5.60;99.90
41256;DHT22;26989;45.524;10.938;2022-12-18T05:14:41;5.70;99.90
41256;DHT22;26989;45.524;10.938;2022-12-18T05:17:08;5.60;99.90
41256;DHT22;26989;45.524;10.938;2022-12-18T05:19:35;5.70;99.90
41256;DHT22;26989;45.524;10.938;2022-12-18T05:22:02;5.70;99.90
41256;DHT22;26989;45.524;10.938;2022-12-18T05:24:29;5.70;99.90
41256;DHT22;26989;45.524;10.938;2022-12-18T05:26:56;5.60;99.90
41256;DHT22;26989;45.524;10.938;2022-12-18T05:29:23;5.70;99.90
41256;DHT22;26989;45.524;10.938;2022-12-18T05:31:50;5.60;99.90
41256;DHT22;26989;45.524;10.938;2022-12-18T05:34:17;5.60;99.90
41256;DHT22;26989;45.524;10.938;2022-12-18T05:36:44;5.60;99.90
41256;DHT22;26989;45.524;10.938;2022-12-18T05:39:11;5.60;99.90
41256;DHT22;26989;45.524;10.938;2022-12-18T05:41:38;5.60;99.90
41256;DHT22;26989;45.524;10.938;2022-12-18T05:44:05;5.60;99.90
41256;DHT22;26989;45.524;10.938;2022-12-18T05:46:32;5.50;99.90
41256;DHT22;26989;45.524;10.938;2022-12-18T05:48:59;5.40;99.90
41256;DHT22;26989;45.524;10.938;2022-12-18T05:51:27;5.40;99.90
41256;DHT22;26989;45.524;10.938;2022-12-18T05:53:55;5.40;99.90
41256;DHT22;26989;45.524;10.938;2022-12-18T05:56:22;5.40;99.90
41256;DHT22;26989;45.524;10.938;2022-12-18T05:58:53;5.40;99.90
41256;DHT22;26989;45.524;10.938;2022-12-18T06:01:24;5.40;99.90
41256;DHT22;26989;45.524;10.938;2022-12-18T06:03:51;5.40;99.90
41256;DHT22;26989;45.524;10.938;2022-12-18T06:06:21;5.40;99.90
41256;DHT22;26989;45.524;10.938;2022-12-18T06:08:50;5.30;99.90
41256;DHT22;26989;45.524;10.938;2022-12-18T06:11:20;5.30;99.90
41256;DHT22;26989;45.524;10.938;2022-12-18T06:13:52;5.30;99.90
41256;DHT22;26989;45.524;10.938;2022-12-18T06:16:25;5.30;99.90
41256;DHT22;26989;45.524;10.938;2022-12-18T06:18:52;5.30;99.90
41256;DHT22;26989;45.524;10.938;2022-12-18T06:21:19;5.30;99.90
41256;DHT22;26989;45.524;10.938;2022-12-18T06:23:46;5.30;99.90
41256;DHT22;26989;45.524;10.938;2022-12-18T06:26:14;5.30;99.90
41256;DHT22;26989;45.524;10.938;2022-12-18T06:28:41;5.30;99.90
41256;DHT22;26989;45.524;10.938;2022-12-18T06:31:09;5.30;99.90
41256;DHT22;26989;45.524;10.938;2022-12-18T06:33:37;5.30;99.90
41256;DHT22;26989;45.524;10.938;2022-12-18T06:36:09;5.30;99.90
41256;DHT22;26989;45.524;10.938;2022-12-18T06:38:41;5.30;99.90
41256;DHT22;26989;45.524;10.938;2022-12-18T06:41:10;5.20;99.90
41256;DHT22;26989;45.524;10.938;2022-12-18T06:43:38;5.10;99.90
41256;DHT22;26989;45.524;10.938;2022-12-18T06:46:05;5.10;99.90
41256;DHT22;26989;45.524;10.938;2022-12-18T06:48:32;5.20;99.90
41256;DHT22;26989;45.524;10.938;2022-12-18T06:50:59;5.20;99.90
41256;DHT22;26989;45.524;10.938;2022-12-18T06:53:32;5.10;99.90
41256;DHT22;26989;45.524;10.938;2022-12-18T06:56:01;5.10;99.90
41256;DHT22;26989;45.524;10.938;2022-12-18T06:58:35;5.10;99.90
41256;DHT22;26989;45.524;10.938;2022-12-18T07:01:05;5.00;99.90
41256;DHT22;26989;45.524;10.938;2022-12-18T07:03:47;5.00;99.90
41256;DHT22;26989;45.524;10.938;2022-12-18T07:06:19;5.00;99.90
41256;DHT22;26989;45.524;10.938;2022-12-18T07:08:47;4.80;99.90
41256;DHT22;26989;45.524;10.938;2022-12-18T07:11:15;4.80;99.90
41256;DHT22;26989;45.524;10.938;2022-12-18T07:13:46;4.80;99.90
41256;DHT22;26989;45.524;10.938;2022-12-18T07:16:16;4.90;99.90
41256;DHT22;26989;45.524;10.938;2022-12-18T07:18:51;4.90;99.90
41256;DHT22;26989;45.524;10.938;2022-12-18T07:21:19;4.90;99.90
41256;DHT22;26989;45.524;10.938;2022-12-18T07:23:47;4.90;99.90
41256;DHT22;26989;45.524;10.938;2022-12-18T07:26:18;5.00;99.90
41256;DHT22;26989;45.524;10.938;2022-12-18T07:28:46;5.00;99.90
41256;DHT22;26989;45.524;10.938;2022-12-18T07:31:16;5.00;99.90
41256;DHT22;26989;45.524;10.938;2022-12-18T07:33:44;5.00;99.90
41256;DHT22;26989;45.524;10.938;2022-12-18T07:36:25;5.00;99.90
41256;DHT22;26989;45.524;10.938;2022-12-18T07:38:52;5.00;99.90
41256;DHT22;26989;45.524;10.938;2022-12-18T07:41:20;5.00;99.90
41256;DHT22;26989;45.524;10.938;2022-12-18T07:43:47;4.90;99.90
41256;DHT22;26989;45.524;10.938;2022-12-18T07:46:15;5.00;99.90
41256;DHT22;26989;45.524;10.938;2022-12-18T07:48:43;5.10;99.90
41256;DHT22;26989;45.524;10.938;2022-12-18T07:51:17;5.10;99.90
41256;DHT22;26989;45.524;10.938;2022-12-18T07:53:44;5.20;99.90
41256;DHT22;26989;45.524;10.938;2022-12-18T07:56:12;5.30;99.90
41256;DHT22;26989;45.524;10.938;2022-12-18T07:58:58;5.30;99.90
41256;DHT22;26989;45.524;10.938;2022-12-18T08:01:25;5.30;99.90
41256;DHT22;26989;45.524;10.938;2022-12-18T08:03:53;5.30;99.90
41256;DHT22;26989;45.524;10.938;2022-12-18T08:06:33;5.40;99.90
41256;DHT22;26989;45.524;10.938;2022-12-18T08:09:01;5.40;99.90
41256;DHT22;26989;45.524;10.938;2022-12-18T08:11:29;5.50;99.90
41256;DHT22;26989;45.524;10.938;2022-12-18T08:13:58;5.60;99.90
41256;DHT22;26989;45.524;10.938;2022-12-18T08:16:30;5.50;99.90
41256;DHT22;26989;45.524;10.938;2022-12-18T08:19:01;5.50;99.90
41256;DHT22;26989;45.524;10.938;2022-12-18T08:21:30;5.50;99.90
41256;DHT22;26989;45.524;10.938;2022-12-18T08:23:59;5.60;99.90
41256;DHT22;26989;45.524;10.938;2022-12-18T08:26:30;5.60;99.90
41256;DHT22;26989;45.524;10.938;2022-12-18T08:28:58;5.70;99.90
41256;DHT22;26989;45.524;10.938;2022-12-18T08:31:27;5.70;99.90
41256;DHT22;26989;45.524;10.938;2022-12-18T08:33:55;5.80;99.90
41256;DHT22;26989;45.524;10.938;2022-12-18T08:36:23;5.80;99.90
41256;DHT22;26989;45.524;10.938;2022-12-18T08:38:51;5.90;99.90
41256;DHT22;26989;45.524;10.938;2022-12-18T08:41:19;6.00;99.90
41256;DHT22;26989;45.524;10.938;2022-12-18T08:43:46;6.10;99.90
41256;DHT22;26989;45.524;10.938;2022-12-18T08:46:40;6.10;99.90
41256;DHT22;26989;45.524;10.938;2022-12-18T08:49:11;6.20;99.90
41256;DHT22;26989;45.524;10.938;2022-12-18T08:51:39;6.30;99.90
41256;DHT22;26989;45.524;10.938;2022-12-18T08:54:13;6.30;99.90
41256;DHT22;26989;45.524;10.938;2022-12-18T08:56:42;6.30;99.90
41256;DHT22;26989;45.524;10.938;2022-12-18T08:59:09;6.30;99.90
41256;DHT22;26989;45.524;10.938;2022-12-18T09:01:45;6.40;99.90
41256;DHT22;26989;45.524;10.938;2022-12-18T09:04:13;6.40;99.90
41256;DHT22;26989;45.524;10.938;2022-12-18T09:06:40;6.40;99.90
41256;DHT22;26989;45.524;10.938;2022-12-18T09:09:11;6.50;99.90
41256;DHT22;26989;45.524;10.938;2022-12-18T09:11:38;6.60;99.90
41256;DHT22;26989;45.524;10.938;2022-12-18T09:14:06;6.60;99.90
41256;DHT22;26989;45.524;10.938;2022-12-18T09:16:33;6.70;99.90
41256;DHT22;26989;45.524;10.938;2022-12-18T09:19:03;6.70;99.90
41256;DHT22;26989;45.524;10.938;2022-12-18T09:21:34;6.70;99.90
41256;DHT22;26989;45.524;10.938;2022-12-18T09:24:15;6.70;99.90
41256;DHT22;26989;45.524;10.938;2022-12-18T09:26:42;6.70;99.90
41256;DHT22;26989;45.524;10.938;2022-12-18T09:29:14;6.70;99.90
41256;DHT22;26989;45.524;10.938;2022-12-18T09:31:42;6.60;99.90
41256;DHT22;26989;45.524;10.938;2022-12-18T09:34:13;6.50;99.90
41256;DHT22;26989;45.524;10.938;2022-12-18T09:36:40;6.50;99.90
41256;DHT22;26989;45.524;10.938;2022-12-18T09:42:03;6.30;99.90
41256;DHT22;26989;45.524;10.938;2022-12-18T09:44:42;6.20;99.90
41256;DHT22;26989;45.524;10.938;2022-12-18T09:49:46;6.00;99.90
41256;DHT22;26989;45.524;10.938;2022-12-18T09:52:39;6.00;99.90
41256;DHT22;26989;45.524;10.938;2022-12-18T10:01:10;6.10;99.90
41256;DHT22;26989;45.524;10.938;2022-12-18T10:03:38;6.10;99.90
41256;DHT22;26989;45.524;10.938;2022-12-18T10:13:23;6.20;99.90
41256;DHT22;26989;45.524;10.938;2022-12-18T10:15:45;6.30;99.90
41256;DHT22;26989;45.524;10.938;2022-12-18T10:18:38;6.30;99.90
41256;DHT22;26989;45.524;10.938;2022-12-18T10:21:21;6.30;99.90
41256;DHT22;26989;45.524;10.938;2022-12-18T10:24:26;6.30;99.90
41256;DHT22;26989;45.524;10.938;2022-12-18T10:30:00;6.30;99.90
41256;DHT22;26989;45.524;10.938;2022-12-18T10:32:30;6.40;99.90
41256;DHT22;26989;45.524;10.938;2022-12-18T10:35:00;6.30;99.90
41256;DHT22;26989;45.524;10.938;2022-12-18T10:38:00;6.30;99.90
41256;DHT22;26989;45.524;10.938;2022-12-18T10:43:39;6.40;99.90
41256;DHT22;26989;45.524;10.938;2022-12-18T10:46:27;6.50;99.90
41256;DHT22;26989;45.524;10.938;2022-12-18T10:49:21;6.40;99.90
41256;DHT22;26989;45.524;10.938;2022-12-18T10:51:49;6.40;99.90
41256;DHT22;26989;45.524;10.938;2022-12-18T10:54:18;6.50;99.90
41256;DHT22;26989;45.524;10.938;2022-12-18T10:57:39;6.50;99.90
41256;DHT22;26989;45.524;10.938;2022-12-18T11:00:29;6.50;99.90
41256;DHT22;26989;45.524;10.938;2022-12-18T11:06:58;6.50;99.90
41256;DHT22;26989;45.524;10.938;2022-12-18T11:09:41;6.50;99.90
41256;DHT22;26989;45.524;10.938;2022-12-18T11:12:19;6.50;99.90
41256;DHT22;26989;45.524;10.938;2022-12-18T11:15:06;6.50;99.90
41256;DHT22;26989;45.524;10.938;2022-12-18T11:18:00;6.60;99.90
41256;DHT22;26989;45.524;10.938;2022-12-18T11:20:42;6.60;99.90
41256;DHT22;26989;45.524;10.938;2022-12-18T11:23:23;6.60;99.90
41256;DHT22;26989;45.524;10.938;2022-12-18T11:26:06;6.70;99.90
41256;DHT22;26989;45.524;10.938;2022-12-18T11:29:16;6.70;99.90
41256;DHT22;26989;45.524;10.938;2022-12-18T11:32:37;6.70;99.90
41256;DHT22;26989;45.524;10.938;2022-12-18T11:38:33;6.70;99.90
41256;DHT22;26989;45.524;10.938;2022-12-18T11:41:12;6.70;99.90
41256;DHT22;26989;45.524;10.938;2022-12-18T11:44:05;6.80;99.90
41256;DHT22;26989;45.524;10.938;2022-12-18T11:46:58;6.80;99.90
41256;DHT22;26989;45.524;10.938;2022-12-18T11:49:36;6.80;99.90
41256;DHT22;26989;45.524;10.938;2022-12-18T11:52:10;6.80;99.90
41256;DHT22;26989;45.524;10.938;2022-12-18T11:55:00;6.70;99.90
41256;DHT22;26989;45.524;10.938;2022-12-18T11:57:42;6.80;99.90
41256;DHT22;26989;45.524;10.938;2022-12-18T12:00:18;6.80;99.90
41256;DHT22;26989;45.524;10.938;2022-12-18T12:11:51;6.90;99.90
41256;DHT22;26989;45.524;10.938;2022-12-18T12:17:42;7.00;99.90
41256;DHT22;26989;45.524;10.938;2022-12-18T12:36:14;7.40;99.90
41256;DHT22;26989;45.524;10.938;2022-12-18T12:39:08;7.50;99.90
41256;DHT22;26989;45.524;10.938;2022-12-18T12:41:52;7.60;99.90
41256;DHT22;26989;45.524;10.938;2022-12-18T12:44:58;7.70;99.90
41256;DHT22;26989;45.524;10.938;2022-12-18T12:47:36;7.60;99.90
41256;DHT22;26989;45.524;10.938;2022-12-18T12:50:16;7.70;99.90
41256;DHT22;26989;45.524;10.938;2022-12-18T12:52:49;7.80;99.90
41256;DHT22;26989;45.524;10.938;2022-12-18T13:13:10;8.00;99.90
41256;DHT22;26989;45.524;10.938;2022-12-18T13:16:08;8.00;99.90
41256;DHT22;26989;45.524;10.938;2022-12-18T13:18:53;8.00;99.90
41256;DHT22;26989;45.524;10.938;2022-12-18T13:21:34;8.00;99.90
41256;DHT22;26989;45.524;10.938;2022-12-18T13:24:31;8.00;99.90
41256;DHT22;26989;45.524;10.938;2022-12-18T13:32:48;7.80;99.90
41256;DHT22;26989;45.524;10.938;2022-12-18T13:38:35;8.00;99.90
41256;DHT22;26989;45.524;10.938;2022-12-18T13:41:26;8.00;99.90
41256;DHT22;26989;45.524;10.938;2022-12-18T13:47:04;8.10;99.90
41256;DHT22;26989;45.524;10.938;2022-12-18T13:49:46;8.00;99.90
41256;DHT22;26989;45.524;10.938;2022-12-18T13:52:27;8.10;99.90
41256;DHT22;26989;45.524;10.938;2022-12-18T13:55:17;8.00;99.90
41256;DHT22;26989;45.524;10.938;2022-12-18T13:58:05;8.00;99.90
41256;DHT22;26989;45.524;10.938;2022-12-18T14:00:34;8.00;99.90
41256;DHT22;26989;45.524;10.938;2022-12-18T14:03:01;8.00;99.90
41256;DHT22;26989;45.524;10.938;2022-12-18T14:05:32;8.00;99.90
41256;DHT22;26989;45.524;10.938;2022-12-18T14:08:13;8.00;99.90
41256;DHT22;26989;45.524;10.938;2022-12-18T14:10:45;7.90;99.90
41256;DHT22;26989;45.524;10.938;2022-12-18T14:13:28;7.90;99.90
41256;DHT22;26989;45.524;10.938;2022-12-18T14:16:14;7.80;99.90
41256;DHT22;26989;45.524;10.938;2022-12-18T14:18:57;7.80;99.90
41256;DHT22;26989;45.524;10.938;2022-12-18T14:21:38;7.70;99.90
41256;DHT22;26989;45.524;10.938;2022-12-18T14:24:20;7.60;99.90
41256;DHT22;26989;45.524;10.938;2022-12-18T14:26:49;7.50;99.90
41256;DHT22;26989;45.524;10.938;2022-12-18T14:29:26;7.40;99.90
41256;DHT22;26989;45.524;10.938;2022-12-18T14:32:11;7.30;99.90
41256;DHT22;26989;45.524;10.938;2022-12-18T14:34:51;7.20;99.90
41256;DHT22;26989;45.524;10.938;2022-12-18T14:37:25;7.00;99.90
41256;DHT22;26989;45.524;10.938;2022-12-18T14:40:13;7.00;99.90
41256;DHT22;26989;45.524;10.938;2022-12-18T14:42:42;6.90;99.90
41256;DHT22;26989;45.524;10.938;2022-12-18T14:45:32;6.80;99.90
41256;DHT22;26989;45.524;10.938;2022-12-18T14:48:19;6.70;99.90
41256;DHT22;26989;45.524;10.938;2022-12-18T14:51:03;6.70;99.90
41256;DHT22;26989;45.524;10.938;2022-12-18T14:53:48;6.60;99.90
41256;DHT22;26989;45.524;10.938;2022-12-18T14:56:32;6.50;99.90
41256;DHT22;26989;45.524;10.938;2022-12-18T14:59:22;6.30;99.90
41256;DHT22;26989;45.524;10.938;2022-12-18T15:02:01;6.30;99.90
41256;DHT22;26989;45.524;10.938;2022-12-18T15:09:44;6.10;99.90
41256;DHT22;26989;45.524;10.938;2022-12-18T15:12:37;6.10;99.90
41256;DHT22;26989;45.524;10.938;2022-12-18T15:15:43;6.00;99.90
41256;DHT22;26989;45.524;10.938;2022-12-18T15:17:59;6.00;99.90
41256;DHT22;26989;45.524;10.938;2022-12-18T15:23:44;5.70;99.90
41256;DHT22;26989;45.524;10.938;2022-12-18T15:26:15;5.70;99.90
41256;DHT22;26989;45.524;10.938;2022-12-18T15:28:56;5.70;99.90
41256;DHT22;26989;45.524;10.938;2022-12-18T15:31:29;5.70;99.90
41256;DHT22;26989;45.524;10.938;2022-12-18T15:36:31;5.70;99.90
41256;DHT22;26989;45.524;10.938;2022-12-18T15:39:04;5.50;99.90
41256;DHT22;26989;45.524;10.938;2022-12-18T15:41:34;5.50;99.90
41256;DHT22;26989;45.524;10.938;2022-12-18T15:44:23;5.40;99.90
41256;DHT22;26989;45.524;10.938;2022-12-18T15:46:53;5.20;99.90
41256;DHT22;26989;45.524;10.938;2022-12-18T15:49:31;5.10;99.90
41256;DHT22;26989;45.524;10.938;2022-12-18T15:52:04;5.10;99.90
41256;DHT22;26989;45.524;10.938;2022-12-18T15:54:32;4.90;99.90
41256;DHT22;26989;45.524;10.938;2022-12-18T15:57:22;4.80;99.90
41256;DHT22;26989;45.524;10.938;2022-12-18T15:59:51;4.70;99.90
41256;DHT22;26989;45.524;10.938;2022-12-18T16:02:20;4.60;99.90
41256;DHT22;26989;45.524;10.938;2022-12-18T16:04:51;4.50;99.90
41256;DHT22;26989;45.524;10.938;2022-12-18T16:07:18;4.40;99.90
41256;DHT22;26989;45.524;10.938;2022-12-18T16:09:51;4.40;99.90
41256;DHT22;26989;45.524;10.938;2022-12-18T16:12:22;4.30;99.90
41256;DHT22;26989;45.524;10.938;2022-12-18T16:14:51;4.40;99.90
41256;DHT22;26989;45.524;10.938;2022-12-18T16:17:18;4.30;99.90
41256;DHT22;26989;45.524;10.938;2022-12-18T16:19:49;4.20;99.90
41256;DHT22;26989;45.524;10.938;2022-12-18T16:22:25;4.10;99.90
41256;DHT22;26989;45.524;10.938;2022-12-18T16:24:54;4.10;99.90
41256;DHT22;26989;45.524;10.938;2022-12-18T16:27:22;4.10;99.90
41256;DHT22;26989;45.524;10.938;2022-12-18T16:29:49;4.00;99.90
41256;DHT22;26989;45.524;10.938;2022-12-18T16:32:19;4.00;99.90
41256;DHT22;26989;45.524;10.938;2022-12-18T16:34:47;4.00;99.90
41256;DHT22;26989;45.524;10.938;2022-12-18T16:37:15;3.90;99.90
41256;DHT22;26989;45.524;10.938;2022-12-18T16:39:45;3.90;99.90
41256;DHT22;26989;45.524;10.938;2022-12-18T16:42:15;3.80;99.90
41256;DHT22;26989;45.524;10.938;2022-12-18T16:44:46;3.80;99.90
41256;DHT22;26989;45.524;10.938;2022-12-18T16:47:13;3.90;99.90
41256;DHT22;26989;45.524;10.938;2022-12-18T16:49:42;3.90;99.90
41256;DHT22;26989;45.524;10.938;2022-12-18T16:52:11;3.80;99.90
41256;DHT22;26989;45.524;10.938;2022-12-18T16:54:38;3.80;99.90
41256;DHT22;26989;45.524;10.938;2022-12-18T16:57:05;3.80;99.90
41256;DHT22;26989;45.524;10.938;2022-12-18T16:59:33;3.70;99.90
41256;DHT22;26989;45.524;10.938;2022-12-18T17:02:10;3.70;99.90
41256;DHT22;26989;45.524;10.938;2022-12-18T17:04:39;3.60;99.90
41256;DHT22;26989;45.524;10.938;2022-12-18T17:07:06;3.60;99.90
41256;DHT22;26989;45.524;10.938;2022-12-18T17:09:34;3.50;99.90
41256;DHT22;26989;45.524;10.938;2022-12-18T17:12:01;3.50;99.90
41256;DHT22;26989;45.524;10.938;2022-12-18T17:14:31;3.40;99.90
41256;DHT22;26989;45.524;10.938;2022-12-18T17:16:59;3.40;99.90
41256;DHT22;26989;45.524;10.938;2022-12-18T17:19:46;3.40;99.90
41256;DHT22;26989;45.524;10.938;2022-12-18T17:22:16;3.40;99.90
41256;DHT22;26989;45.524;10.938;2022-12-18T17:24:43;3.40;99.90
41256;DHT22;26989;45.524;10.938;2022-12-18T17:27:11;3.50;99.90
41256;DHT22;26989;45.524;10.938;2022-12-18T17:29:38;3.40;99.90
41256;DHT22;26989;45.524;10.938;2022-12-18T17:32:13;3.40;99.90
41256;DHT22;26989;45.524;10.938;2022-12-18T17:34:40;3.30;99.90
41256;DHT22;26989;45.524;10.938;2022-12-18T17:37:07;3.40;99.90
41256;DHT22;26989;45.524;10.938;2022-12-18T17:39:34;3.40;99.90
41256;DHT22;26989;45.524;10.938;2022-12-18T17:42:02;3.40;99.90
41256;DHT22;26989;45.524;10.938;2022-12-18T17:44:31;3.40;99.90
41256;DHT22;26989;45.524;10.938;2022-12-18T17:47:00;3.40;99.90
41256;DHT22;26989;45.524;10.938;2022-12-18T17:49:27;3.40;99.90
41256;DHT22;26989;45.524;10.938;2022-12-18T17:51:54;3.40;99.90
41256;DHT22;26989;45.524;10.938;2022-12-18T17:54:21;3.40;99.90
41256;DHT22;26989;45.524;10.938;2022-12-18T17:56:48;3.30;99.90
41256;DHT22;26989;45.524;10.938;2022-12-18T17:59:15;3.30;99.90
41256;DHT22;26989;45.524;10.938;2022-12-18T18:01:42;3.20;99.90
41256;DHT22;26989;45.524;10.938;2022-12-18T18:04:11;3.20;99.90
41256;DHT22;26989;45.524;10.938;2022-12-18T18:06:40;3.20;99.90
41256;DHT22;26989;45.524;10.938;2022-12-18T18:09:07;3.20;99.90
41256;DHT22;26989;45.524;10.938;2022-12-18T18:11:43;3.10;99.90
41256;DHT22;26989;45.524;10.938;2022-12-18T18:14:31;3.20;99.90
41256;DHT22;26989;45.524;10.938;2022-12-18T18:16:59;3.10;99.90
41256;DHT22;26989;45.524;10.938;2022-12-18T18:19:31;3.10;99.90
41256;DHT22;26989;45.524;10.938;2022-12-18T18:22:00;3.10;99.90
41256;DHT22;26989;45.524;10.938;2022-12-18T18:24:29;3.10;99.90